»·PEaware :: N335AK KRNO-KSAC

N335AK :: KRNO-KSAC

FLIGHT INFORMATION

Flight Status: Arrived
Operator: Privately registered:
United States
More flights under this callsign
Pilot: Gabor H. (24209)
Aircraft: Unknown
(EPIC)
More flights by this aircraft type
Origin: KRNO Reno/Tahoe Intl
United States
Destination: KSAC Sacramento Executive
United States
More flights between these airports :: More routes between these airports
Route: +
File this flight plan on PilotEdge
Remarks:
Altitude:
(Current/Filed)
0ft
Speed:
(Current/Filed)
0kts
Departed: 14-Jul-20 07:19 AM
Arrived: 14-Jul-20 07:56 AM
Distance/Time
Traveled:
100nm/0:37
Distance/Time
To Go:
Arrived

Flight Plot

Page will automatically refresh every two minutes.

Flight plan parsing failed; only flown route is shown


Map Options




Map Legend


Flown Route
Filed Route
Departure Airport
Arrival Airport
Navaid (VOR, NDB)
Fix

Horizontal Profiles

Position Reports

Time Latitude Longitude Heading Altitude Ground
Speed
14-Jul-20 07:08 39.501386 -119.764784 89 4418ft 0kts
14-Jul-20 07:09 39.501386 -119.764784 89 4418ft 0kts
14-Jul-20 07:10 39.501386 -119.764784 89 4418ft 0kts
14-Jul-20 07:11 39.502291 -119.764995 265 4418ft 4kts
14-Jul-20 07:12 39.501972 -119.765734 1 4418ft 17kts
14-Jul-20 07:13 39.505992 -119.765718 0 4418ft 9kts
14-Jul-20 07:14 39.508593 -119.765733 1 4418ft 8kts
14-Jul-20 07:15 39.512421 -119.765169 359 4418ft 19kts
14-Jul-20 07:16 39.513704 -119.765598 285 4418ft 0kts
14-Jul-20 07:17 39.513320 -119.766746 180 4418ft 0kts
14-Jul-20 07:18 39.484348 -119.767034 179 5901ft 181kts
14-Jul-20 07:19 39.443256 -119.786618 264 10052ft 185kts
14-Jul-20 07:20 39.495278 -119.836831 334 10522ft 295kts
14-Jul-20 07:21 39.526735 -119.920143 236 10547ft 311kts
14-Jul-20 07:22 39.470794 -120.000771 199 10559ft 316kts
14-Jul-20 07:23 39.387009 -120.034284 214 10549ft 316kts
14-Jul-20 07:24 39.344078 -120.131336 246 10589ft 314kts
14-Jul-20 07:25 39.329613 -120.239593 274 10590ft 312kts
14-Jul-20 07:27 39.337141 -120.351302 260 10564ft 311kts
14-Jul-20 07:28 39.320414 -120.461605 257 10535ft 312kts
14-Jul-20 07:29 39.317679 -120.571682 282 10525ft 313kts
14-Jul-20 07:30 39.282071 -120.664109 230 10308ft 263kts
14-Jul-20 07:31 39.239531 -120.730582 230 9296ft 239kts
14-Jul-20 07:32 39.195383 -120.799127 230 7815ft 255kts
14-Jul-20 07:33 39.149513 -120.870181 230 6458ft 254kts
14-Jul-20 07:34 39.107541 -120.935037 230 6371ft 222kts
14-Jul-20 07:35 39.061334 -120.984284 216 6170ft 220kts
14-Jul-20 07:36 39.010467 -121.032001 216 5482ft 231kts
14-Jul-20 07:37 38.958089 -121.080927 215 4786ft 234kts
14-Jul-20 07:38 38.906188 -121.129299 215 4464ft 234kts
14-Jul-20 07:39 38.849833 -121.181769 215 3781ft 255kts
14-Jul-20 07:40 38.792365 -121.235168 215 3080ft 249kts
14-Jul-20 07:41 38.739937 -121.283727 214 2494ft 219kts
14-Jul-20 07:42 38.691453 -121.328571 214 2435ft 217kts
14-Jul-20 07:42 38.652567 -121.364503 214 2002ft 200kts
14-Jul-20 07:44 38.603470 -121.409777 215 1521ft 164kts
14-Jul-20 07:45 38.572130 -121.446652 220 1496ft 157kts
14-Jul-20 07:45 38.539634 -121.468795 193 1430ft 170kts
14-Jul-20 07:47 38.484566 -121.454511 142 1834ft 190kts
14-Jul-20 07:47 38.455236 -121.422027 138 2456ft 138kts
14-Jul-20 07:48 38.420294 -121.394733 174 2374ft 141kts
14-Jul-20 07:49 38.395184 -121.419861 295 1596ft 153kts
14-Jul-20 07:50 38.419095 -121.459783 315 964ft 118kts
14-Jul-20 07:51 38.447031 -121.490289 321 993ft 138kts
14-Jul-20 07:52 38.479616 -121.499942 14 986ft 117kts
14-Jul-20 07:53 38.507215 -121.477458 34 993ft 120kts
14-Jul-20 07:54 38.526914 -121.480825 239 766ft 104kts
14-Jul-20 07:55 38.511446 -121.495861 231 23ft 24kts
14-Jul-20 07:56 38.512362 -121.496491 32 23ft 23kts
14-Jul-20 07:57 38.514845 -121.498430 225 23ft 0kts
14-Jul-20 07:58 38.514845 -121.498430 224 23ft 0kts
14-Jul-20 07:59 38.514845 -121.498430 224 23ft 0kts

Navigation Log

Ident Type
Flight plan parsing failed, navigation log unavailable